Time;durP1;ratioP1;P1;durP2;ratioP2;P2;SDS_P1;SDS_P2;PMS_P1;PMS_P2;Temp;Humidity;BMP_temperature;BMP_pressure;BME280_temperature;BME280_humidity;BME280_pressure;Samples;Min_cycle;Max_cycle;Signal;HPM_P1;HPM_P2
2023/12/02 00:02:22;;;;;;;;;;;;;;;;;;5047634;28;5223;-61
2023/12/02 00:04:47;;;;;;;;;;;;;;;;;;5050290;28;1096;-62
2023/12/02 00:07:13;;;;;;;;;;;;;;;;;;5045503;28;5132;-61
2023/12/02 00:09:38;;;;;;;;;;;;;;;;;;5037794;28;4962;-61
2023/12/02 00:12:03;;;;;;;;;;;;;;;;;;5048584;28;4525;-60
2023/12/02 00:14:29;;;;;;;;;;;;;;;;;;5047275;28;5263;-65
2023/12/02 00:16:55;;;;;;;;;;;;;;;;;;5034946;28;1345;-60
2023/12/02 00:19:20;;;;;;;;;;;;;;;;;;5043170;28;5045;-62
2023/12/02 00:21:45;;;;;;;;;;;;;;;;;;5043490;28;4918;-61
2023/12/02 00:24:11;;;;;;;;;;;;;;;;;;5034625;28;5285;-63
2023/12/02 00:26:36;;;;;;;;;;;;;;;;;;5039752;28;4718;-62
2023/12/02 00:29:01;;;;;;;;;;;;;;;;;;5032539;28;4926;-62
2023/12/02 00:31:26;;;;;;;;;;;;;;;;;;5053590;28;5887;-62
2023/12/02 00:33:52;;;;;;;;;;;;;;;;;;5053704;28;5055;-61
2023/12/02 00:36:17;;;;;;;;;;;;;;;;;;5041092;28;4908;-61
2023/12/02 00:38:42;;;;;;;;;;;;;;;;;;5044025;28;5122;-60
2023/12/02 00:41:08;;;;;;;;;;;;;;;;;;5045277;28;5289;-60
2023/12/02 00:43:33;;;;;;;;;;;;;;;;;;5048088;28;1095;-62
2023/12/02 00:45:59;;;;;;;;;;;;;;;;;;5037406;28;4629;-64
2023/12/02 00:48:24;;;;;;;;;;;;;;;;;;5047275;28;4447;-60
2023/12/02 00:50:49;;;;;;;;;;;;;;;;;;5027957;28;5416;-61
2023/12/02 00:53:14;;;;;;;;;;;;;;;;;;5046344;28;5013;-61
2023/12/02 00:55:40;;;;;;;;;;;;;;;;;;5043620;28;1314;-61
2023/12/02 00:58:05;;;;;;;;;;;;;;;;;;5048579;28;4719;-62
2023/12/02 01:00:30;;;;;;;;;;;;;;;;;;5045714;28;5441;-60
2023/12/02 01:02:56;;;;;;;;;;;;;;;;;;5028913;28;5134;-60
2023/12/02 01:05:21;;;;;;;;;;;;;;;;;;5045770;28;4876;-62
2023/12/02 01:07:46;;;;;;;;;;;;;;;;;;5043942;28;3273;-60
2023/12/02 01:10:15;;;;;;;;;;;;;;;;;;5044098;28;5056;-61
2023/12/02 01:12:40;;;;;;;;;;;;;;;;;;5036838;28;5071;-61
2023/12/02 01:15:05;;;;;;;;;;;;;;;;;;5046395;28;5061;-62
2023/12/02 01:17:31;;;;;;;;;;;;;;;;;;5045239;28;5197;-61
2023/12/02 01:19:56;;;;;;;;;;;;;;;;;;5048084;28;1325;-61
2023/12/02 01:22:21;;;;;;;;;;;;;;;;;;5021315;28;5019;-62
2023/12/02 01:24:46;;;;;;;;;;;;;;;;;;5049558;28;5527;-63
2023/12/02 01:27:12;;;;;;;;;;;;;;;;;;5053460;28;5229;-62
2023/12/02 01:29:38;;;;;;;;;;;;;;;;;;5042189;28;5201;-62
2023/12/02 01:32:03;;;;;;;;;;;;;;;;;;5050559;28;5151;-61
2023/12/02 01:34:28;;;;;;;;;;;;;;;;;;5046116;28;3225;-60
2023/12/02 01:36:54;;;;;;;;;;;;;;;;;;5046495;28;5233;-62
2023/12/02 01:39:19;;;;;;;;;;;;;;;;;;5041464;28;4890;-60
2023/12/02 01:41:44;;;;;;;;;;;;;;;;;;5046700;28;4648;-60
2023/12/02 01:44:13;;;;;;;;;;;;;;;;;;5043864;28;5139;-61
2023/12/02 01:46:38;;;;;;;;;;;;;;;;;;5047079;28;1005;-63
2023/12/02 01:49:03;;;;;;;;;;;;;;;;;;5039473;28;5013;-61
2023/12/02 01:51:29;;;;;;;;;;;;;;;;;;5021950;28;5030;-66
2023/12/02 01:53:54;;;;;;;;;;;;;;;;;;5040530;28;4860;-61
2023/12/02 01:56:20;;;;;;;;;;;;;;;;;;5044295;28;5228;-62
2023/12/02 01:58:46;;;;;;;;;;;;;;;;;;5042721;28;3253;-59
2023/12/02 02:01:11;;;;;;;;;;;;;;;;;;5041357;28;5120;-62
2023/12/02 02:03:36;;;;;;;;;;;;;;;;;;5042624;28;5191;-60
2023/12/02 02:06:02;;;;;;;;;;;;;;;;;;5049346;28;5229;-64
2023/12/02 02:08:27;;;;;;;;;;;;;;;;;;5042225;28;4775;-63
2023/12/02 02:10:58;;;;;;;;;;;;;;;;;;5046415;28;3229;-61
2023/12/02 02:13:24;;;;;;;;;;;;;;;;;;5045043;28;4607;-61
2023/12/02 02:15:49;;;;;;;;;;;;;;;;;;5039920;28;5478;-62
2023/12/02 02:18:15;;;;;;;;;;;;;;;;;;5037560;28;4487;-61
2023/12/02 02:20:40;;;;;;;;;;;;;;;;;;5036308;28;5062;-63
2023/12/02 02:23:05;;;;;;;;;;;;;;;;;;5034966;28;4671;-65
2023/12/02 02:25:30;;;;;;;;;;;;;;;;;;5044473;28;3534;-61
2023/12/02 02:27:56;;;;;;;;;;;;;;;;;;5040292;28;5056;-62
2023/12/02 02:30:22;;;;;;;;;;;;;;;;;;5041847;28;5221;-62
2023/12/02 02:32:47;;;;;;;;;;;;;;;;;;5040036;28;5087;-61
2023/12/02 02:35:13;;;;;;;;;;;;;;;;;;5042320;28;4739;-60
2023/12/02 02:37:38;;;;;;;;;;;;;;;;;;5035620;28;1373;-60
2023/12/02 02:40:05;;;;;;;;;;;;;;;;;;5035169;28;4438;-62
2023/12/02 02:42:30;;;;;;;;;;;;;;;;;;5041109;28;4444;-62
2023/12/02 02:44:56;;;;;;;;;;;;;;;;;;5040859;28;5013;-61
2023/12/02 02:47:21;;;;;;;;;;;;;;;;;;5044107;28;5131;-62
2023/12/02 02:49:47;;;;;;;;;;;;;;;;;;5037118;28;3296;-62
2023/12/02 02:52:12;;;;;;;;;;;;;;;;;;5045452;28;5187;-61
2023/12/02 02:54:38;;;;;;;;;;;;;;;;;;5041268;28;4498;-61
2023/12/02 02:57:03;;;;;;;;;;;;;;;;;;5040444;28;4495;-60
2023/12/02 02:59:28;;;;;;;;;;;;;;;;;;5043558;28;4527;-61
2023/12/02 03:01:54;;;;;;;;;;;;;;;;;;5039494;28;3266;-61
2023/12/02 03:04:19;;;;;;;;;;;;;;;;;;5040789;28;5085;-63
2023/12/02 03:06:44;;;;;;;;;;;;;;;;;;5035669;28;5062;-61
2023/12/02 03:09:11;;;;;;;;;;;;;;;;;;5044395;28;4686;-61
2023/12/02 03:11:36;;;;;;;;;;;;;;;;;;5044415;28;5097;-62
2023/12/02 03:14:02;;;;;;;;;;;;;;;;;;5038658;28;3282;-60
2023/12/02 03:16:27;;;;;;;;;;;;;;;;;;5041447;28;4657;-60
2023/12/02 03:18:53;;;;;;;;;;;;;;;;;;5044242;28;5131;-61
2023/12/02 03:21:18;;;;;;;;;;;;;;;;;;5041903;28;5035;-66
2023/12/02 03:23:43;;;;;;;;;;;;;;;;;;5048510;28;4484;-62
2023/12/02 03:26:09;;;;;;;;;;;;;;;;;;5047606;28;4661;-66
2023/12/02 03:28:36;;;;;;;;;;;;;;;;;;5043752;28;5038;-63
2023/12/02 03:31:01;;;;;;;;;;;;;;;;;;5039152;28;5041;-63
2023/12/02 03:33:26;;;;;;;;;;;;;;;;;;5026580;28;5260;-62
2023/12/02 03:35:52;;;;;;;;;;;;;;;;;;5044931;28;5289;-64
2023/12/02 03:38:17;;;;;;;;;;;;;;;;;;5042678;28;5074;-61
2023/12/02 03:40:42;;;;;;;;;;;;;;;;;;5048336;28;1153;-65
2023/12/02 03:43:08;;;;;;;;;;;;;;;;;;5042432;28;4657;-66
2023/12/02 03:45:33;;;;;;;;;;;;;;;;;;5044402;28;4692;-61
2023/12/02 03:47:58;;;;;;;;;;;;;;;;;;5046017;28;4706;-61
2023/12/02 03:50:24;;;;;;;;;;;;;;;;;;5047658;28;5138;-67
2023/12/02 03:52:49;;;;;;;;;;;;;;;;;;5047891;28;1975;-61
2023/12/02 03:55:14;;;;;;;;;;;;;;;;;;5047083;28;4565;-61
2023/12/02 03:57:40;;;;;;;;;;;;;;;;;;5040421;28;5151;-61
2023/12/02 04:00:10;;;;;;;;;;;;;;;;;;5042622;28;4881;-60
2023/12/02 04:02:36;;;;;;;;;;;;;;;;;;5041474;28;4840;-60
2023/12/02 04:05:02;;;;;;;;;;;;;;;;;;5049877;28;1188;-62
2023/12/02 04:07:28;;;;;;;;;;;;;;;;;;5027491;28;4981;-59
2023/12/02 04:09:54;;;;;;;;;;;;;;;;;;5044339;28;4862;-61
2023/12/02 04:12:19;;;;;;;;;;;;;;;;;;5025378;28;5107;-59
2023/12/02 04:14:44;;;;;;;;;;;;;;;;;;5041864;28;4530;-60
2023/12/02 04:17:10;;;;;;;;;;;;;;;;;;5042353;28;4653;-59
2023/12/02 04:19:35;;;;;;;;;;;;;;;;;;5047817;28;1309;-60
2023/12/02 04:22:01;;;;;;;;;;;;;;;;;;5045111;28;5206;-60
2023/12/02 04:24:26;;;;;;;;;;;;;;;;;;5042475;28;5196;-59
2023/12/02 04:26:52;;;;;;;;;;;;;;;;;;5050082;28;5113;-60
2023/12/02 04:29:17;;;;;;;;;;;;;;;;;;5015628;28;5117;-62
2023/12/02 04:31:42;;;;;;;;;;;;;;;;;;5050851;28;1906;-61
2023/12/02 04:34:08;;;;;;;;;;;;;;;;;;5044401;28;5045;-61
2023/12/02 04:36:33;;;;;;;;;;;;;;;;;;5046036;28;4847;-61
2023/12/02 04:38:59;;;;;;;;;;;;;;;;;;5042744;28;5132;-62
2023/12/02 04:41:24;;;;;;;;;;;;;;;;;;5041403;28;4866;-61
2023/12/02 04:43:49;;;;;;;;;;;;;;;;;;5044671;28;3175;-61
2023/12/02 04:46:15;;;;;;;;;;;;;;;;;;5042074;28;4929;-61
2023/12/02 04:48:41;;;;;;;;;;;;;;;;;;5053819;28;4823;-61
2023/12/02 04:51:06;;;;;;;;;;;;;;;;;;5047255;28;4814;-61
2023/12/02 04:53:31;;;;;;;;;;;;;;;;;;5045938;28;5256;-62
2023/12/02 04:55:56;;;;;;;;;;;;;;;;;;5051319;28;1246;-62
2023/12/02 04:58:22;;;;;;;;;;;;;;;;;;5027208;28;5013;-62
2023/12/02 05:00:47;;;;;;;;;;;;;;;;;;5025492;28;4918;-62
2023/12/02 05:03:17;;;;;;;;;;;;;;;;;;5043496;28;5027;-62
2023/12/02 05:05:42;;;;;;;;;;;;;;;;;;5044449;28;5013;-62
2023/12/02 05:08:07;;;;;;;;;;;;;;;;;;5010350;28;5120;-63
2023/12/02 05:10:33;;;;;;;;;;;;;;;;;;5047348;28;3771;-61
2023/12/02 05:12:59;;;;;;;;;;;;;;;;;;5046314;28;4653;-62
2023/12/02 05:15:24;;;;;;;;;;;;;;;;;;5048296;28;4613;-61
2023/12/02 05:17:50;;;;;;;;;;;;;;;;;;5042723;28;5257;-62
2023/12/02 05:20:16;;;;;;;;;;;;;;;;;;5045027;28;4979;-61
2023/12/02 05:22:41;;;;;;;;;;;;;;;;;;5021838;28;2118;-61
2023/12/02 05:25:07;;;;;;;;;;;;;;;;;;5032914;28;4667;-61
2023/12/02 05:27:32;;;;;;;;;;;;;;;;;;5041620;28;5242;-60
2023/12/02 05:29:58;;;;;;;;;;;;;;;;;;5018856;28;5082;-63
2023/12/02 05:32:23;;;;;;;;;;;;;;;;;;5044732;28;5317;-62
2023/12/02 05:34:48;;;;;;;;;;;;;;;;;;5045183;28;1224;-62
2023/12/02 05:37:13;;;;;;;;;;;;;;;;;;5025855;28;4876;-63
2023/12/02 05:39:39;;;;;;;;;;;;;;;;;;5038796;28;5104;-62
2023/12/02 05:42:04;;;;;;;;;;;;;;;;;;5039876;28;4864;-61
2023/12/02 05:44:29;;;;;;;;;;;;;;;;;;5042585;28;4573;-62
2023/12/02 05:46:55;;;;;;;;;;;;;;;;;;5040999;28;1106;-61
2023/12/02 05:49:21;;;;;;;;;;;;;;;;;;5034233;28;5122;-63
2023/12/02 05:51:46;;;;;;;;;;;;;;;;;;5040565;28;5149;-60
2023/12/02 05:54:11;;;;;;;;;;;;;;;;;;5047822;28;5162;-61
2023/12/02 05:56:36;;;;;;;;;;;;;;;;;;5046318;28;5042;-62
2023/12/02 05:59:02;;;;;;;;;;;;;;;;;;5044428;28;3193;-60
2023/12/02 06:01:27;;;;;;;;;;;;;;;;;;5044445;28;4529;-61
2023/12/02 06:03:52;;;;;;;;;;;;;;;;;;5043651;28;4972;-60
2023/12/02 06:06:19;;;;;;;;;;;;;;;;;;5009790;28;4916;-62
2023/12/02 06:08:44;;;;;;;;;;;;;;;;;;5045802;28;5065;-62
2023/12/02 06:11:09;;;;;;;;;;;;;;;;;;5044809;28;5472;-64
2023/12/02 06:13:35;;;;;;;;;;;;;;;;;;5042941;28;3539;-63
2023/12/02 06:16:00;;;;;;;;;;;;;;;;;;5042411;28;4857;-65
2023/12/02 06:18:26;;;;;;;;;;;;;;;;;;5043012;28;5302;-61
2023/12/02 06:20:53;;;;;;;;;;;;;;;;;;5038823;28;4665;-63
2023/12/02 06:23:18;;;;;;;;;;;;;;;;;;5028326;28;5070;-61
2023/12/02 06:25:43;;;;;;;;;;;;;;;;;;5047593;28;1078;-59
2023/12/02 06:28:09;;;;;;;;;;;;;;;;;;5023009;28;5153;-62
2023/12/02 06:30:34;;;;;;;;;;;;;;;;;;5042746;28;5143;-61
2023/12/02 06:32:59;;;;;;;;;;;;;;;;;;5035337;28;4963;-63
2023/12/02 06:35:25;;;;;;;;;;;;;;;;;;5042276;28;4736;-60
2023/12/02 06:37:50;;;;;;;;;;;;;;;;;;5023851;28;3067;-62
2023/12/02 06:40:15;;;;;;;;;;;;;;;;;;5038942;28;4400;-62
2023/12/02 06:42:41;;;;;;;;;;;;;;;;;;5032602;28;5082;-62
2023/12/02 06:45:06;;;;;;;;;;;;;;;;;;5036819;28;4769;-61
2023/12/02 06:47:31;;;;;;;;;;;;;;;;;;5040437;28;5124;-62
2023/12/02 06:49:57;;;;;;;;;;;;;;;;;;5041745;28;3475;-62
2023/12/02 06:52:22;;;;;;;;;;;;;;;;;;5040463;28;4978;-61
2023/12/02 06:54:47;;;;;;;;;;;;;;;;;;5046581;28;5027;-62
2023/12/02 06:57:13;;;;;;;;;;;;;;;;;;5036181;28;5147;-61
2023/12/02 06:59:38;;;;;;;;;;;;;;;;;;5019309;28;4601;-60
2023/12/02 07:02:03;;;;;;;;;;;;;;;;;;5037863;28;5160;-60
2023/12/02 07:04:28;;;;;;;;;;;;;;;;;;5041274;28;3275;-60
2023/12/02 07:06:54;;;;;;;;;;;;;;;;;;5043297;28;4642;-61
2023/12/02 07:09:19;;;;;;;;;;;;;;;;;;5038152;28;4979;-61
2023/12/02 07:11:44;;;;;;;;;;;;;;;;;;5032714;28;5164;-62
2023/12/02 07:14:10;;;;;;;;;;;;;;;;;;5040610;28;5375;-61
2023/12/02 07:16:35;;;;;;;;;;;;;;;;;;5046207;28;1093;-61
2023/12/02 07:19:00;;;;;;;;;;;;;;;;;;5044579;28;5184;-64
2023/12/02 07:21:25;;;;;;;;;;;;;;;;;;5034736;28;4938;-63
2023/12/02 07:23:51;;;;;;;;;;;;;;;;;;5045239;28;4886;-62
2023/12/02 07:26:16;;;;;;;;;;;;;;;;;;5039750;28;4721;-61
2023/12/02 07:28:41;;;;;;;;;;;;;;;;;;5042279;28;5209;-65
2023/12/02 07:31:16;;;;;;;;;;;;;;;;;;5042441;28;5155;-62
2023/12/02 07:33:41;;;;;;;;;;;;;;;;;;5044341;28;4475;-63
2023/12/02 07:36:07;;;;;;;;;;;;;;;;;;5046101;28;4639;-64
2023/12/02 07:38:32;;;;;;;;;;;;;;;;;;5032572;28;5094;-61
2023/12/02 07:40:58;;;;;;;;;;;;;;;;;;5040957;28;3522;-61
2023/12/02 07:43:23;;;;;;;;;;;;;;;;;;5042872;28;5203;-62
2023/12/02 07:45:48;;;;;;;;;;;;;;;;;;5022505;28;4554;-63
2023/12/02 07:48:14;;;;;;;;;;;;;;;;;;5024937;28;5148;-66
2023/12/02 07:50:39;;;;;;;;;;;;;;;;;;5039722;28;4435;-59
2023/12/02 07:53:04;;;;;;;;;;;;;;;;;;5043416;28;5133;-64
2023/12/02 07:55:30;;;;;;;;;;;;;;;;;;5034688;28;3284;-62
2023/12/02 07:57:55;;;;;;;;;;;;;;;;;;5017838;28;5133;-61
2023/12/02 08:00:20;;;;;;;;;;;;;;;;;;5032125;28;5095;-61
2023/12/02 08:02:46;;;;;;;;;;;;;;;;;;5040163;28;5144;-62
2023/12/02 08:05:11;;;;;;;;;;;;;;;;;;5041743;28;5102;-61
2023/12/02 08:07:36;;;;;;;;;;;;;;;;;;5039267;28;3727;-62
2023/12/02 08:10:02;;;;;;;;;;;;;;;;;;5034338;28;5098;-64
2023/12/02 08:12:27;;;;;;;;;;;;;;;;;;5036235;28;5047;-57
2023/12/02 08:14:52;;;;;;;;;;;;;;;;;;5039347;28;5038;-58
2023/12/02 08:17:18;;;;;;;;;;;;;;;;;;5042788;28;5430;-56
2023/12/02 08:19:43;;;;;;;;;;;;;;;;;;5038010;28;3431;-58
2023/12/02 08:22:08;;;;;;;;;;;;;;;;;;5037977;28;5042;-64
2023/12/02 08:24:36;;;;;;;;;;;;;;;;;;5044718;28;5130;-57
2023/12/02 08:27:01;;;;;;;;;;;;;;;;;;5027178;28;5011;-65
2023/12/02 08:29:26;;;;;;;;;;;;;;;;;;5045473;28;5022;-66
2023/12/02 08:31:52;;;;;;;;;;;;;;;;;;5041283;28;3378;-59
2023/12/02 08:34:17;;;;;;;;;;;;;;;;;;5023858;28;4699;-59
2023/12/02 08:36:43;;;;;;;;;;;;;;;;;;5046852;28;4470;-63
2023/12/02 08:39:08;;;;;;;;;;;;;;;;;;5043625;28;4942;-62
2023/12/02 08:41:33;;;;;;;;;;;;;;;;;;5039773;28;5078;-59
2023/12/02 08:43:59;;;;;;;;;;;;;;;;;;5027940;28;2038;-56
2023/12/02 08:46:24;;;;;;;;;;;;;;;;;;5049247;28;4937;-59
2023/12/02 08:48:49;;;;;;;;;;;;;;;;;;5039242;28;5079;-56
2023/12/02 08:51:15;;;;;;;;;;;;;;;;;;5042321;28;5002;-62
2023/12/02 08:53:40;;;;;;;;;;;;;;;;;;5040064;28;4589;-59
2023/12/02 08:56:06;;;;;;;;;;;;;;;;;;5036359;28;5000;-60
2023/12/02 08:58:31;;;;;;;;;;;;;;;;;;5045497;28;1553;-58
2023/12/02 09:00:56;;;;;;;;;;;;;;;;;;5040953;28;4591;-58
2023/12/02 09:03:22;;;;;;;;;;;;;;;;;;5030562;28;5085;-67
2023/12/02 09:05:47;;;;;;;;;;;;;;;;;;5033728;28;4494;-56
2023/12/02 09:08:12;;;;;;;;;;;;;;;;;;5023804;28;4700;-60
2023/12/02 09:10:38;;;;;;;;;;;;;;;;;;5028460;28;3985;-59
2023/12/02 09:13:06;;;;;;;;;;;;;;;;;;5045313;28;5095;-56
2023/12/02 09:15:38;;;;;;;;;;;;;;;;;;5027212;28;5134;-63
2023/12/02 09:18:09;;;;;;;;;;;;;;;;;;5023482;28;4485;-55
2023/12/02 09:20:38;;;;;;;;;;;;;;;;;;5046037;28;5108;-60
2023/12/02 09:23:06;;;;;;;;;;;;;;;;;;5045168;28;5003;-58
2023/12/02 09:25:32;;;;;;;;;;;;;;;;;;5045065;28;2764;-61
2023/12/02 09:28:05;;;;;;;;;;;;;;;;;;5046118;28;5071;-57
2023/12/02 09:30:30;;;;;;;;;;;;;;;;;;5044768;28;5127;-58
2023/12/02 09:32:56;;;;;;;;;;;;;;;;;;5042624;28;5614;-61
2023/12/02 09:35:21;;;;;;;;;;;;;;;;;;5038425;28;5069;-61
2023/12/02 09:37:56;;;;;;;;;;;;;;;;;;5036606;28;3610;-63
2023/12/02 09:40:21;;;;;;;;;;;;;;;;;;5034356;28;5016;-61
2023/12/02 09:42:49;;;;;;;;;;;;;;;;;;5039346;28;5525;-56
2023/12/02 09:45:14;;;;;;;;;;;;;;;;;;5036311;28;5086;-53
2023/12/02 09:47:40;;;;;;;;;;;;;;;;;;5037759;28;5032;-62
2023/12/02 09:50:05;;;;;;;;;;;;;;;;;;5021300;28;5118;-65
2023/12/02 09:52:45;;;;;;;;;;;;;;;;;;5038409;28;3537;-63
2023/12/02 09:55:14;;;;;;;;;;;;;;;;;;5036534;28;5205;-57
2023/12/02 09:57:45;;;;;;;;;;;;;;;;;;5038390;28;4640;-58
2023/12/02 10:00:12;;;;;;;;;;;;;;;;;;5034028;28;5184;-57
2023/12/02 10:02:52;;;;;;;;;;;;;;;;;;5038801;28;5180;-60
2023/12/02 10:05:17;;;;;;;;;;;;;;;;;;5033413;28;5195;-60
2023/12/02 10:08:03;;;;;;;;;;;;;;;;;;5030905;28;3279;-60
2023/12/02 10:10:52;;;;;;;;;;;;;;;;;;5040056;28;5104;-61
2023/12/02 10:13:17;;;;;;;;;;;;;;;;;;5018127;28;4643;-61
2023/12/02 10:15:42;;;;;;;;;;;;;;;;;;5036624;28;5043;-61
2023/12/02 10:18:12;;;;;;;;;;;;;;;;;;5032450;28;5316;-61
2023/12/02 10:20:38;;;;;;;;;;;;;;;;;;5030853;28;5153;-65
2023/12/02 10:23:18;;;;;;;;;;;;;;;;;;5033342;28;4577;-64
2023/12/02 10:25:51;;;;;;;;;;;;;;;;;;5042299;28;3517;-62
2023/12/02 10:28:26;;;;;;;;;;;;;;;;;;5036960;28;5089;-60
2023/12/02 10:30:51;;;;;;;;;;;;;;;;;;5039878;28;4950;-65
2023/12/02 10:33:27;;;;;;;;;;;;;;;;;;5034863;28;5095;-60
2023/12/02 10:35:55;;;;;;;;;;;;;;;;;;5035853;28;4504;-63
2023/12/02 10:38:26;;;;;;;;;;;;;;;;;;5033235;28;5141;-66
2023/12/02 10:41:09;;;;;;;;;;;;;;;;;;5032580;28;3322;-64
2023/12/02 10:43:39;;;;;;;;;;;;;;;;;;5038061;28;5138;-62
2023/12/02 10:46:04;;;;;;;;;;;;;;;;;;5036368;28;5221;-64
2023/12/02 10:48:30;;;;;;;;;;;;;;;;;;5032920;28;5169;-65
2023/12/02 10:50:55;;;;;;;;;;;;;;;;;;5040811;28;4466;-61
2023/12/02 10:53:20;;;;;;;;;;;;;;;;;;5039247;28;5144;-63
2023/12/02 10:55:47;;;;;;;;;;;;;;;;;;5038827;28;3259;-65
2023/12/02 10:58:13;;;;;;;;;;;;;;;;;;5040429;28;5096;-63
2023/12/02 11:00:39;;;;;;;;;;;;;;;;;;5040535;28;4712;-63
2023/12/02 11:03:07;;;;;;;;;;;;;;;;;;5034820;28;4913;-60
2023/12/02 11:05:45;;;;;;;;;;;;;;;;;;5037643;28;5249;-61
2023/12/02 11:08:22;;;;;;;;;;;;;;;;;;5036055;28;5090;-66
2023/12/02 11:14:18;;;;;;;;;;;;;;;;;;5030729;27;1417126;-64
2023/12/02 11:16:51;;;;;;;;;;;;;;;;;;5057065;28;3441;-62
2023/12/02 11:19:17;;;;;;;;;;;;;;;;;;5038820;28;5095;-60
2023/12/02 11:21:55;;;;;;;;;;;;;;;;;;5037880;28;4750;-62
2023/12/02 11:24:29;;;;;;;;;;;;;;;;;;5036531;28;4976;-67
2023/12/02 11:30:03;;;;;;;;;;;;;;;;;;5095082;27;4904;-47
2023/12/02 11:32:43;;;;;;;;;;;;;;;;;;5074768;28;5062;-57
2023/12/02 11:35:09;;;;;;;;;;;;;;;;;;5078734;28;4862;-50
2023/12/02 11:37:37;;;;;;;;;;;;;;;;;;5072279;28;3460;-46
2023/12/02 11:40:12;;;;;;;;;;;;;;;;;;5077205;28;4470;-52
2023/12/02 11:42:57;;;;;;;;;;;;;;;;;;5078701;28;4943;-43
2023/12/02 11:45:26;;;;;;;;;;;;;;;;;;5071022;28;4865;-48
2023/12/02 11:47:55;;;;;;;;;;;;;;;;;;5072552;28;5071;-48
2023/12/02 11:50:34;;;;;;;;;;;;;;;;;;5071159;28;5000;-48
2023/12/02 11:53:20;;;;;;;;;;;;;;;;;;5076751;28;3402;-53
2023/12/02 11:55:50;;;;;;;;;;;;;;;;;;5068356;28;5179;-51
2023/12/02 11:58:18;;;;;;;;;;;;;;;;;;5073051;28;5047;-52
2023/12/02 12:00:53;;;;;;;;;;;;;;;;;;5065793;28;5066;-52
2023/12/02 12:03:18;;;;;;;;;;;;;;;;;;5073863;28;5131;-51
2023/12/02 12:05:53;;;;;;;;;;;;;;;;;;5069899;28;5026;-51
2023/12/02 12:08:18;;;;;;;;;;;;;;;;;;5077573;28;5069;-50
2023/12/02 12:10:44;;;;;;;;;;;;;;;;;;5077459;28;3392;-53
2023/12/02 12:13:10;;;;;;;;;;;;;;;;;;5074681;28;4985;-55
2023/12/02 12:15:36;;;;;;;;;;;;;;;;;;5073985;28;4545;-50
2023/12/02 12:18:02;;;;;;;;;;;;;;;;;;5078011;28;5065;-54
2023/12/02 12:20:29;;;;;;;;;;;;;;;;;;5079226;28;4765;-51
2023/12/02 12:22:54;;;;;;;;;;;;;;;;;;5070695;28;3455;-56
2023/12/02 12:25:20;;;;;;;;;;;;;;;;;;5073786;28;5091;-54
2023/12/02 12:27:45;;;;;;;;;;;;;;;;;;5112703;28;5208;-51
2023/12/02 12:30:11;;;;;;;;;;;;;;;;;;5073483;28;5212;-51
2023/12/02 12:32:37;;;;;;;;;;;;;;;;;;5081617;28;4417;-53
2023/12/02 12:35:08;;;;;;;;;;;;;;;;;;5082791;28;3367;-54
2023/12/02 12:37:35;;;;;;;;;;;;;;;;;;5083085;28;5079;-52
2023/12/02 12:40:00;;;;;;;;;;;;;;;;;;5068843;28;4973;-51
2023/12/02 12:42:26;;;;;;;;;;;;;;;;;;5068207;28;4415;-52
2023/12/02 12:44:51;;;;;;;;;;;;;;;;;;5062530;28;5061;-54
2023/12/02 12:47:16;;;;;;;;;;;;;;;;;;5065186;28;4507;-51
2023/12/02 12:49:42;;;;;;;;;;;;;;;;;;5065452;28;3286;-54
2023/12/02 12:52:08;;;;;;;;;;;;;;;;;;5064638;28;5173;-50
2023/12/02 12:54:35;;;;;;;;;;;;;;;;;;5061461;28;4937;-49
2023/12/02 12:57:03;;;;;;;;;;;;;;;;;;5068290;28;5089;-51
2023/12/02 12:59:28;;;;;;;;;;;;;;;;;;5065384;28;5033;-50
2023/12/02 13:02:09;;;;;;;;;;;;;;;;;;5065428;28;3300;-51
2023/12/02 13:04:35;;;;;;;;;;;;;;;;;;5065557;28;5034;-53
2023/12/02 13:07:10;;;;;;;;;;;;;;;;;;5067618;28;4950;-52
2023/12/02 13:09:36;;;;;;;;;;;;;;;;;;5060527;28;5143;-48
2023/12/02 13:12:16;;;;;;;;;;;;;;;;;;5059430;28;5144;-55
2023/12/02 13:14:46;;;;;;;;;;;;;;;;;;5065208;28;5255;-51
2023/12/02 13:17:13;;;;;;;;;;;;;;;;;;5067617;28;5456;-55
2023/12/02 13:19:40;;;;;;;;;;;;;;;;;;5048148;28;3315;-50
2023/12/02 13:22:06;;;;;;;;;;;;;;;;;;5052569;28;4459;-57
2023/12/02 13:24:32;;;;;;;;;;;;;;;;;;5058772;28;5021;-54
2023/12/02 13:26:57;;;;;;;;;;;;;;;;;;5060815;28;5049;-47
2023/12/02 13:29:25;;;;;;;;;;;;;;;;;;5062896;28;5335;-48
2023/12/02 13:31:50;;;;;;;;;;;;;;;;;;5063370;28;3805;-48
2023/12/02 13:34:20;;;;;;;;;;;;;;;;;;5063094;28;5108;-49
2023/12/02 13:36:49;;;;;;;;;;;;;;;;;;5061920;28;5177;-47
2023/12/02 13:39:24;;;;;;;;;;;;;;;;;;5061767;28;4674;-51
2023/12/02 13:41:49;;;;;;;;;;;;;;;;;;5064080;28;5130;-51
2023/12/02 13:44:16;;;;;;;;;;;;;;;;;;5064995;28;4694;-49
2023/12/02 13:46:47;;;;;;;;;;;;;;;;;;5060382;28;3356;-51
2023/12/02 13:49:16;;;;;;;;;;;;;;;;;;5061412;28;5135;-49
2023/12/02 13:51:45;;;;;;;;;;;;;;;;;;5062944;28;5000;-48
2023/12/02 13:54:31;;;;;;;;;;;;;;;;;;5065733;28;5104;-52
2023/12/02 13:57:23;;;;;;;;;;;;;;;;;;5063541;28;5042;-53
2023/12/02 13:59:49;;;;;;;;;;;;;;;;;;5059548;28;5330;-54
2023/12/02 14:02:27;;;;;;;;;;;;;;;;;;5057679;28;4525;-52
2023/12/02 14:05:11;;;;;;;;;;;;;;;;;;5058836;28;3374;-51
2023/12/02 14:07:40;;;;;;;;;;;;;;;;;;5067519;28;5028;-53
2023/12/02 14:10:06;;;;;;;;;;;;;;;;;;5063106;28;5071;-50
2023/12/02 14:12:44;;;;;;;;;;;;;;;;;;5042933;28;5091;-52
2023/12/02 14:15:12;;;;;;;;;;;;;;;;;;5064137;28;5063;-50
2023/12/02 14:17:38;;;;;;;;;;;;;;;;;;5060790;28;5081;-50
2023/12/02 14:20:06;;;;;;;;;;;;;;;;;;5056743;28;5035;-53
2023/12/02 14:22:38;;;;;;;;;;;;;;;;;;5060569;28;3561;-51
2023/12/02 14:25:14;;;;;;;;;;;;;;;;;;5062495;28;5113;-50
2023/12/02 14:27:45;;;;;;;;;;;;;;;;;;5063573;28;5136;-52
2023/12/02 14:30:16;;;;;;;;;;;;;;;;;;5056808;28;5134;-51
2023/12/02 14:32:45;;;;;;;;;;;;;;;;;;5063389;28;4875;-52
2023/12/02 14:35:15;;;;;;;;;;;;;;;;;;5066850;28;4837;-52
2023/12/02 14:37:52;;;;;;;;;;;;;;;;;;5062638;28;3370;-55
2023/12/02 14:40:37;;;;;;;;;;;;;;;;;;5063880;28;5150;-49
2023/12/02 14:43:05;;;;;;;;;;;;;;;;;;5065231;28;5122;-52
2023/12/02 14:45:31;;;;;;;;;;;;;;;;;;5063532;28;4465;-50
2023/12/02 14:48:03;;;;;;;;;;;;;;;;;;5059449;28;5163;-50
2023/12/02 14:50:28;;;;;;;;;;;;;;;;;;5061235;28;5107;-53
2023/12/02 14:52:54;;;;;;;;;;;;;;;;;;5062953;28;3708;-50
2023/12/02 14:55:19;;;;;;;;;;;;;;;;;;5064657;28;5011;-48
2023/12/02 14:57:44;;;;;;;;;;;;;;;;;;5060517;28;4999;-53
2023/12/02 15:00:10;;;;;;;;;;;;;;;;;;5060297;28;5093;-48
2023/12/02 15:02:38;;;;;;;;;;;;;;;;;;5062872;28;4986;-46
2023/12/02 15:05:04;;;;;;;;;;;;;;;;;;5057535;28;5067;-49
2023/12/02 15:07:38;;;;;;;;;;;;;;;;;;5053472;28;3306;-53
2023/12/02 15:10:04;;;;;;;;;;;;;;;;;;5052864;28;4720;-51
2023/12/02 15:12:32;;;;;;;;;;;;;;;;;;5057685;28;5050;-49
2023/12/02 15:14:57;;;;;;;;;;;;;;;;;;5053437;28;4549;-55
2023/12/02 15:17:22;;;;;;;;;;;;;;;;;;5057282;28;5028;-46
2023/12/02 15:19:48;;;;;;;;;;;;;;;;;;5053652;28;3523;-54
2023/12/02 15:22:16;;;;;;;;;;;;;;;;;;5048186;28;5025;-49
2023/12/02 15:24:41;;;;;;;;;;;;;;;;;;5056775;28;5024;-51
2023/12/02 15:27:07;;;;;;;;;;;;;;;;;;5056998;28;5523;-52
2023/12/02 15:29:32;;;;;;;;;;;;;;;;;;5056414;28;5058;-54
2023/12/02 15:31:57;;;;;;;;;;;;;;;;;;5055667;28;3316;-51
2023/12/02 15:34:23;;;;;;;;;;;;;;;;;;5055415;28;4998;-50
2023/12/02 15:36:49;;;;;;;;;;;;;;;;;;5061283;28;5108;-53
2023/12/02 15:39:14;;;;;;;;;;;;;;;;;;5057558;28;4988;-50
2023/12/02 15:41:43;;;;;;;;;;;;;;;;;;5055952;28;5078;-50
2023/12/02 15:44:08;;;;;;;;;;;;;;;;;;5055559;28;4487;-55
2023/12/02 15:46:33;;;;;;;;;;;;;;;;;;5059159;28;3408;-47
2023/12/02 15:48:59;;;;;;;;;;;;;;;;;;5053894;28;5169;-48
2023/12/02 15:51:25;;;;;;;;;;;;;;;;;;5064174;28;4980;-53
2023/12/02 15:53:51;;;;;;;;;;;;;;;;;;5054953;28;4950;-51
2023/12/02 15:56:17;;;;;;;;;;;;;;;;;;5064980;28;5026;-52
2023/12/02 15:58:43;;;;;;;;;;;;;;;;;;5066035;28;1254;-54
2023/12/02 16:01:12;;;;;;;;;;;;;;;;;;5064428;28;5002;-53
2023/12/02 16:03:38;;;;;;;;;;;;;;;;;;5061042;28;5313;-50
2023/12/02 16:06:03;;;;;;;;;;;;;;;;;;5065252;28;5001;-54
2023/12/02 16:08:32;;;;;;;;;;;;;;;;;;5062572;28;4926;-51
2023/12/02 16:11:01;;;;;;;;;;;;;;;;;;5063754;28;1259;-51
2023/12/02 16:13:29;;;;;;;;;;;;;;;;;;5059860;28;4903;-50
2023/12/02 16:15:55;;;;;;;;;;;;;;;;;;5064163;28;4985;-48
2023/12/02 16:18:20;;;;;;;;;;;;;;;;;;5067438;28;4512;-52
2023/12/02 16:20:45;;;;;;;;;;;;;;;;;;5061001;28;5109;-52
2023/12/02 16:23:11;;;;;;;;;;;;;;;;;;5062470;28;5111;-51
2023/12/02 16:25:36;;;;;;;;;;;;;;;;;;5069354;28;1091;-48
2023/12/02 16:28:02;;;;;;;;;;;;;;;;;;5067928;28;4954;-50
2023/12/02 16:30:28;;;;;;;;;;;;;;;;;;5061455;28;5149;-50
2023/12/02 16:32:54;;;;;;;;;;;;;;;;;;5063046;28;4954;-52
2023/12/02 16:35:19;;;;;;;;;;;;;;;;;;5062720;28;5008;-53
2023/12/02 16:37:44;;;;;;;;;;;;;;;;;;5067286;28;3312;-54
2023/12/02 16:40:10;;;;;;;;;;;;;;;;;;5064574;28;4963;-51
2023/12/02 16:42:36;;;;;;;;;;;;;;;;;;5055890;28;4470;-51
2023/12/02 16:45:13;;;;;;;;;;;;;;;;;;5058971;28;5050;-52
2023/12/02 16:47:50;;;;;;;;;;;;;;;;;;5060208;28;5092;-52
2023/12/02 16:50:16;;;;;;;;;;;;;;;;;;5056466;28;4499;-50
2023/12/02 16:52:41;;;;;;;;;;;;;;;;;;5061350;28;3302;-57
2023/12/02 16:55:10;;;;;;;;;;;;;;;;;;5064473;28;4463;-51
2023/12/02 16:57:35;;;;;;;;;;;;;;;;;;5056588;28;5247;-52
2023/12/02 17:00:03;;;;;;;;;;;;;;;;;;5056485;28;5411;-52
2023/12/02 17:02:35;;;;;;;;;;;;;;;;;;5060315;28;4718;-52
2023/12/02 17:05:02;;;;;;;;;;;;;;;;;;5051708;28;3421;-49
2023/12/02 17:07:27;;;;;;;;;;;;;;;;;;5059103;28;4973;-49
2023/12/02 17:09:53;;;;;;;;;;;;;;;;;;5059423;28;5313;-49